sensor_id;sensor_type;location;lat;lon;timestamp;P1;durP1;ratioP1;P2;durP2;ratioP2
68353;SDS011;55274;43.060;25.618;2023-01-20T00:02:16;13.15;;;2.15;;
68353;SDS011;55274;43.060;25.618;2023-01-20T00:04:42;8.63;;;2.17;;
68353;SDS011;55274;43.060;25.618;2023-01-20T00:07:08;13.82;;;2.15;;
68353;SDS011;55274;43.060;25.618;2023-01-20T00:09:33;9.73;;;2.38;;
68353;SDS011;55274;43.060;25.618;2023-01-20T00:11:59;8.13;;;2.00;;
68353;SDS011;55274;43.060;25.618;2023-01-20T00:14:25;7.97;;;2.15;;
68353;SDS011;55274;43.060;25.618;2023-01-20T00:16:51;10.07;;;2.58;;
68353;SDS011;55274;43.060;25.618;2023-01-20T00:19:17;7.57;;;3.75;;
68353;SDS011;55274;43.060;25.618;2023-01-20T00:21:43;13.95;;;3.22;;
68353;SDS011;55274;43.060;25.618;2023-01-20T00:24:09;12.70;;;3.63;;
68353;SDS011;55274;43.060;25.618;2023-01-20T00:26:35;8.60;;;3.92;;
68353;SDS011;55274;43.060;25.618;2023-01-20T00:29:01;8.13;;;3.00;;
68353;SDS011;55274;43.060;25.618;2023-01-20T00:31:28;13.85;;;4.05;;
68353;SDS011;55274;43.060;25.618;2023-01-20T00:33:55;19.33;;;4.20;;
68353;SDS011;55274;43.060;25.618;2023-01-20T00:36:25;14.85;;;4.93;;
68353;SDS011;55274;43.060;25.618;2023-01-20T00:38:52;14.68;;;5.00;;
68353;SDS011;55274;43.060;25.618;2023-01-20T00:41:18;20.77;;;5.40;;
68353;SDS011;55274;43.060;25.618;2023-01-20T00:43:44;22.10;;;5.38;;
68353;SDS011;55274;43.060;25.618;2023-01-20T00:46:10;14.40;;;3.25;;
68353;SDS011;55274;43.060;25.618;2023-01-20T00:48:36;7.60;;;2.65;;
68353;SDS011;55274;43.060;25.618;2023-01-20T00:51:03;9.68;;;2.58;;
68353;SDS011;55274;43.060;25.618;2023-01-20T00:53:30;11.48;;;3.65;;
68353;SDS011;55274;43.060;25.618;2023-01-20T00:55:56;11.43;;;3.35;;
68353;SDS011;55274;43.060;25.618;2023-01-20T00:58:22;13.15;;;7.25;;
68353;SDS011;55274;43.060;25.618;2023-01-20T01:00:48;11.00;;;5.55;;
68353;SDS011;55274;43.060;25.618;2023-01-20T01:03:15;8.63;;;5.07;;
68353;SDS011;55274;43.060;25.618;2023-01-20T01:05:41;10.55;;;4.07;;
68353;SDS011;55274;43.060;25.618;2023-01-20T01:08:07;7.82;;;2.53;;
68353;SDS011;55274;43.060;25.618;2023-01-20T01:10:34;5.07;;;2.00;;
68353;SDS011;55274;43.060;25.618;2023-01-20T01:13:00;9.10;;;2.83;;
68353;SDS011;55274;43.060;25.618;2023-01-20T01:15:27;12.65;;;2.80;;
68353;SDS011;55274;43.060;25.618;2023-01-20T01:17:54;7.68;;;3.15;;
68353;SDS011;55274;43.060;25.618;2023-01-20T01:20:21;6.65;;;2.75;;
68353;SDS011;55274;43.060;25.618;2023-01-20T01:22:47;12.48;;;4.63;;
68353;SDS011;55274;43.060;25.618;2023-01-20T01:25:12;8.35;;;3.58;;
68353;SDS011;55274;43.060;25.618;2023-01-20T01:27:38;8.38;;;2.80;;
68353;SDS011;55274;43.060;25.618;2023-01-20T01:30:04;11.27;;;3.70;;
68353;SDS011;55274;43.060;25.618;2023-01-20T01:32:30;9.10;;;3.80;;
68353;SDS011;55274;43.060;25.618;2023-01-20T01:34:56;11.18;;;3.53;;
68353;SDS011;55274;43.060;25.618;2023-01-20T01:37:22;8.05;;;3.30;;
68353;SDS011;55274;43.060;25.618;2023-01-20T01:39:48;7.28;;;3.33;;
68353;SDS011;55274;43.060;25.618;2023-01-20T01:42:15;9.40;;;2.95;;
68353;SDS011;55274;43.060;25.618;2023-01-20T01:53:00;9.73;;;2.95;;
68353;SDS011;55274;43.060;25.618;2023-01-20T01:55:28;11.48;;;3.58;;
68353;SDS011;55274;43.060;25.618;2023-01-20T01:57:57;7.53;;;2.85;;
68353;SDS011;55274;43.060;25.618;2023-01-20T02:00:24;7.78;;;2.67;;
68353;SDS011;55274;43.060;25.618;2023-01-20T02:02:50;10.70;;;3.50;;
68353;SDS011;55274;43.060;25.618;2023-01-20T02:05:17;6.20;;;2.53;;
68353;SDS011;55274;43.060;25.618;2023-01-20T02:07:44;6.88;;;3.40;;
68353;SDS011;55274;43.060;25.618;2023-01-20T02:10:11;8.65;;;2.97;;
68353;SDS011;55274;43.060;25.618;2023-01-20T02:12:39;22.70;;;3.35;;
68353;SDS011;55274;43.060;25.618;2023-01-20T02:15:06;5.70;;;2.58;;
68353;SDS011;55274;43.060;25.618;2023-01-20T02:17:44;8.25;;;2.92;;
68353;SDS011;55274;43.060;25.618;2023-01-20T02:20:39;9.15;;;2.22;;
68353;SDS011;55274;43.060;25.618;2023-01-20T02:26:38;6.82;;;3.22;;
68353;SDS011;55274;43.060;25.618;2023-01-20T02:34:53;11.27;;;3.60;;
68353;SDS011;55274;43.060;25.618;2023-01-20T02:38:15;9.35;;;3.85;;
68353;SDS011;55274;43.060;25.618;2023-01-20T02:40:38;9.07;;;3.72;;
68353;SDS011;55274;43.060;25.618;2023-01-20T02:43:23;12.30;;;3.53;;
68353;SDS011;55274;43.060;25.618;2023-01-20T02:46:03;13.10;;;5.68;;
68353;SDS011;55274;43.060;25.618;2023-01-20T02:48:51;67.80;;;7.43;;
68353;SDS011;55274;43.060;25.618;2023-01-20T02:51:29;8.02;;;3.70;;
68353;SDS011;55274;43.060;25.618;2023-01-20T02:54:00;8.38;;;3.50;;
68353;SDS011;55274;43.060;25.618;2023-01-20T02:56:29;12.10;;;3.63;;
68353;SDS011;55274;43.060;25.618;2023-01-20T02:58:59;11.35;;;3.30;;
68353;SDS011;55274;43.060;25.618;2023-01-20T03:01:34;8.38;;;3.63;;
68353;SDS011;55274;43.060;25.618;2023-01-20T03:04:10;7.40;;;3.05;;
68353;SDS011;55274;43.060;25.618;2023-01-20T03:06:41;7.15;;;3.10;;
68353;SDS011;55274;43.060;25.618;2023-01-20T03:09:13;9.73;;;2.67;;
68353;SDS011;55274;43.060;25.618;2023-01-20T03:11:44;8.13;;;2.78;;
68353;SDS011;55274;43.060;25.618;2023-01-20T03:14:16;8.90;;;2.67;;
68353;SDS011;55274;43.060;25.618;2023-01-20T03:16:42;16.15;;;3.03;;
68353;SDS011;55274;43.060;25.618;2023-01-20T03:19:12;7.57;;;2.85;;
68353;SDS011;55274;43.060;25.618;2023-01-20T03:21:38;13.77;;;2.80;;
68353;SDS011;55274;43.060;25.618;2023-01-20T03:24:05;10.00;;;3.38;;
68353;SDS011;55274;43.060;25.618;2023-01-20T03:26:31;7.75;;;2.70;;
68353;SDS011;55274;43.060;25.618;2023-01-20T03:28:57;8.73;;;3.92;;
68353;SDS011;55274;43.060;25.618;2023-01-20T03:31:28;15.73;;;4.60;;
68353;SDS011;55274;43.060;25.618;2023-01-20T03:33:59;6.05;;;2.80;;
68353;SDS011;55274;43.060;25.618;2023-01-20T03:36:29;9.73;;;3.35;;
68353;SDS011;55274;43.060;25.618;2023-01-20T03:38:56;9.15;;;3.50;;
68353;SDS011;55274;43.060;25.618;2023-01-20T03:41:25;6.88;;;2.80;;
68353;SDS011;55274;43.060;25.618;2023-01-20T03:44:05;6.28;;;2.80;;
68353;SDS011;55274;43.060;25.618;2023-01-20T03:46:40;6.68;;;1.95;;
68353;SDS011;55274;43.060;25.618;2023-01-20T03:49:07;12.70;;;5.45;;
68353;SDS011;55274;43.060;25.618;2023-01-20T03:51:40;8.13;;;3.10;;
68353;SDS011;55274;43.060;25.618;2023-01-20T03:54:21;2.20;;;1.20;;
68353;SDS011;55274;43.060;25.618;2023-01-20T03:56:53;4.15;;;1.13;;
68353;SDS011;55274;43.060;25.618;2023-01-20T03:59:29;12.30;;;1.83;;
68353;SDS011;55274;43.060;25.618;2023-01-20T04:01:59;11.52;;;1.98;;
68353;SDS011;55274;43.060;25.618;2023-01-20T04:06:56;8.55;;;2.90;;
68353;SDS011;55274;43.060;25.618;2023-01-20T04:09:23;7.50;;;1.95;;
68353;SDS011;55274;43.060;25.618;2023-01-20T04:14:18;24.45;;;2.45;;
68353;SDS011;55274;43.060;25.618;2023-01-20T04:16:51;13.77;;;2.88;;
68353;SDS011;55274;43.060;25.618;2023-01-20T04:19:19;11.98;;;3.05;;
68353;SDS011;55274;43.060;25.618;2023-01-20T04:21:47;10.43;;;3.30;;
68353;SDS011;55274;43.060;25.618;2023-01-20T04:27:07;6.80;;;3.00;;
68353;SDS011;55274;43.060;25.618;2023-01-20T04:29:33;13.77;;;4.60;;
68353;SDS011;55274;43.060;25.618;2023-01-20T04:31:59;11.90;;;3.42;;
68353;SDS011;55274;43.060;25.618;2023-01-20T04:34:26;12.82;;;3.13;;
68353;SDS011;55274;43.060;25.618;2023-01-20T04:36:52;7.28;;;1.80;;
68353;SDS011;55274;43.060;25.618;2023-01-20T04:39:21;5.90;;;2.15;;
68353;SDS011;55274;43.060;25.618;2023-01-20T04:41:47;10.00;;;2.25;;
68353;SDS011;55274;43.060;25.618;2023-01-20T04:44:13;13.55;;;2.50;;
68353;SDS011;55274;43.060;25.618;2023-01-20T04:46:39;6.70;;;2.08;;
68353;SDS011;55274;43.060;25.618;2023-01-20T04:49:04;8.70;;;1.70;;
68353;SDS011;55274;43.060;25.618;2023-01-20T04:51:31;4.40;;;1.20;;
68353;SDS011;55274;43.060;25.618;2023-01-20T04:53:57;22.45;;;1.83;;
68353;SDS011;55274;43.060;25.618;2023-01-20T04:56:23;29.20;;;2.35;;
68353;SDS011;55274;43.060;25.618;2023-01-20T04:58:50;26.52;;;2.13;;
68353;SDS011;55274;43.060;25.618;2023-01-20T05:01:16;22.45;;;2.45;;
68353;SDS011;55274;43.060;25.618;2023-01-20T05:03:41;21.50;;;3.22;;
68353;SDS011;55274;43.060;25.618;2023-01-20T05:06:09;22.75;;;2.22;;
68353;SDS011;55274;43.060;25.618;2023-01-20T05:08:35;7.00;;;1.17;;
68353;SDS011;55274;43.060;25.618;2023-01-20T05:11:01;11.45;;;1.50;;
68353;SDS011;55274;43.060;25.618;2023-01-20T05:13:27;14.85;;;2.22;;
68353;SDS011;55274;43.060;25.618;2023-01-20T05:15:53;9.80;;;1.23;;
68353;SDS011;55274;43.060;25.618;2023-01-20T05:18:19;26.02;;;2.78;;
68353;SDS011;55274;43.060;25.618;2023-01-20T05:20:45;22.08;;;3.65;;
68353;SDS011;55274;43.060;25.618;2023-01-20T05:23:12;9.57;;;1.90;;
68353;SDS011;55274;43.060;25.618;2023-01-20T05:25:38;15.10;;;2.78;;
68353;SDS011;55274;43.060;25.618;2023-01-20T05:28:03;12.57;;;2.25;;
68353;SDS011;55274;43.060;25.618;2023-01-20T05:30:30;19.15;;;2.80;;
68353;SDS011;55274;43.060;25.618;2023-01-20T05:32:56;19.52;;;2.35;;
68353;SDS011;55274;43.060;25.618;2023-01-20T05:35:22;19.88;;;3.20;;
68353;SDS011;55274;43.060;25.618;2023-01-20T05:37:51;10.75;;;1.50;;
68353;SDS011;55274;43.060;25.618;2023-01-20T05:40:18;11.75;;;2.40;;
68353;SDS011;55274;43.060;25.618;2023-01-20T05:42:44;11.55;;;2.55;;
68353;SDS011;55274;43.060;25.618;2023-01-20T05:45:10;9.73;;;3.05;;
68353;SDS011;55274;43.060;25.618;2023-01-20T05:47:36;8.80;;;3.28;;
68353;SDS011;55274;43.060;25.618;2023-01-20T05:50:02;13.85;;;4.68;;
68353;SDS011;55274;43.060;25.618;2023-01-20T05:52:28;16.55;;;4.70;;
68353;SDS011;55274;43.060;25.618;2023-01-20T05:54:54;24.38;;;4.60;;
68353;SDS011;55274;43.060;25.618;2023-01-20T05:57:22;11.35;;;3.15;;
68353;SDS011;55274;43.060;25.618;2023-01-20T05:59:49;13.07;;;3.58;;
68353;SDS011;55274;43.060;25.618;2023-01-20T06:02:16;12.90;;;3.67;;
68353;SDS011;55274;43.060;25.618;2023-01-20T06:04:46;10.25;;;4.03;;
68353;SDS011;55274;43.060;25.618;2023-01-20T06:07:12;11.90;;;3.75;;
68353;SDS011;55274;43.060;25.618;2023-01-20T06:09:39;14.60;;;3.75;;
68353;SDS011;55274;43.060;25.618;2023-01-20T06:12:05;22.88;;;4.45;;
68353;SDS011;55274;43.060;25.618;2023-01-20T06:14:31;15.13;;;4.07;;
68353;SDS011;55274;43.060;25.618;2023-01-20T06:16:56;14.52;;;4.28;;
68353;SDS011;55274;43.060;25.618;2023-01-20T06:19:22;14.60;;;3.90;;
68353;SDS011;55274;43.060;25.618;2023-01-20T06:21:48;8.88;;;3.38;;
68353;SDS011;55274;43.060;25.618;2023-01-20T06:24:14;9.73;;;4.00;;
68353;SDS011;55274;43.060;25.618;2023-01-20T06:26:39;9.10;;;3.97;;
68353;SDS011;55274;43.060;25.618;2023-01-20T06:29:05;18.27;;;3.83;;
68353;SDS011;55274;43.060;25.618;2023-01-20T06:31:31;10.18;;;4.00;;
68353;SDS011;55274;43.060;25.618;2023-01-20T06:33:56;10.52;;;4.07;;
68353;SDS011;55274;43.060;25.618;2023-01-20T06:36:22;8.57;;;3.42;;
68353;SDS011;55274;43.060;25.618;2023-01-20T06:38:48;16.25;;;4.47;;
68353;SDS011;55274;43.060;25.618;2023-01-20T06:41:15;10.38;;;3.60;;
68353;SDS011;55274;43.060;25.618;2023-01-20T06:43:42;10.98;;;3.55;;
68353;SDS011;55274;43.060;25.618;2023-01-20T06:46:09;7.47;;;3.65;;
68353;SDS011;55274;43.060;25.618;2023-01-20T06:48:36;10.10;;;3.85;;
68353;SDS011;55274;43.060;25.618;2023-01-20T06:51:02;7.63;;;3.78;;
68353;SDS011;55274;43.060;25.618;2023-01-20T06:53:35;14.02;;;4.75;;
68353;SDS011;55274;43.060;25.618;2023-01-20T06:56:01;7.35;;;3.72;;
68353;SDS011;55274;43.060;25.618;2023-01-20T06:58:28;9.93;;;3.83;;
68353;SDS011;55274;43.060;25.618;2023-01-20T07:00:55;10.90;;;3.75;;
68353;SDS011;55274;43.060;25.618;2023-01-20T07:03:22;7.30;;;2.83;;
68353;SDS011;55274;43.060;25.618;2023-01-20T07:05:58;7.43;;;3.63;;
68353;SDS011;55274;43.060;25.618;2023-01-20T07:08:26;15.70;;;3.20;;
68353;SDS011;55274;43.060;25.618;2023-01-20T07:10:52;5.30;;;2.50;;
68353;SDS011;55274;43.060;25.618;2023-01-20T07:13:18;4.53;;;2.38;;
68353;SDS011;55274;43.060;25.618;2023-01-20T07:15:44;4.40;;;2.38;;
68353;SDS011;55274;43.060;25.618;2023-01-20T07:18:09;6.28;;;3.17;;
68353;SDS011;55274;43.060;25.618;2023-01-20T07:20:35;10.75;;;2.67;;
68353;SDS011;55274;43.060;25.618;2023-01-20T07:23:02;4.55;;;1.92;;
68353;SDS011;55274;43.060;25.618;2023-01-20T07:25:29;19.70;;;3.40;;
68353;SDS011;55274;43.060;25.618;2023-01-20T07:27:55;6.60;;;2.13;;
68353;SDS011;55274;43.060;25.618;2023-01-20T07:30:22;6.93;;;1.92;;
68353;SDS011;55274;43.060;25.618;2023-01-20T07:32:48;13.88;;;2.60;;
68353;SDS011;55274;43.060;25.618;2023-01-20T07:35:14;7.18;;;2.80;;
68353;SDS011;55274;43.060;25.618;2023-01-20T07:37:40;10.13;;;2.35;;
68353;SDS011;55274;43.060;25.618;2023-01-20T07:40:06;7.80;;;2.53;;
68353;SDS011;55274;43.060;25.618;2023-01-20T07:42:32;23.33;;;3.42;;
68353;SDS011;55274;43.060;25.618;2023-01-20T07:45:01;9.95;;;3.17;;
68353;SDS011;55274;43.060;25.618;2023-01-20T07:47:27;5.95;;;2.95;;
68353;SDS011;55274;43.060;25.618;2023-01-20T07:49:53;24.02;;;3.90;;
68353;SDS011;55274;43.060;25.618;2023-01-20T07:52:18;9.82;;;2.83;;
68353;SDS011;55274;43.060;25.618;2023-01-20T07:54:44;8.07;;;3.20;;
68353;SDS011;55274;43.060;25.618;2023-01-20T07:57:10;10.10;;;3.75;;
68353;SDS011;55274;43.060;25.618;2023-01-20T07:59:36;11.73;;;3.75;;
68353;SDS011;55274;43.060;25.618;2023-01-20T08:02:02;6.65;;;2.97;;
68353;SDS011;55274;43.060;25.618;2023-01-20T08:04:27;11.60;;;3.00;;
68353;SDS011;55274;43.060;25.618;2023-01-20T08:06:56;5.75;;;2.38;;
68353;SDS011;55274;43.060;25.618;2023-01-20T08:09:22;5.25;;;2.40;;
68353;SDS011;55274;43.060;25.618;2023-01-20T08:11:48;8.63;;;2.00;;
68353;SDS011;55274;43.060;25.618;2023-01-20T08:14:14;7.53;;;2.40;;
68353;SDS011;55274;43.060;25.618;2023-01-20T08:16:39;5.43;;;2.60;;
68353;SDS011;55274;43.060;25.618;2023-01-20T08:19:05;47.42;;;4.68;;
68353;SDS011;55274;43.060;25.618;2023-01-20T08:21:31;7.80;;;3.05;;
68353;SDS011;55274;43.060;25.618;2023-01-20T08:23:58;17.10;;;4.10;;
68353;SDS011;55274;43.060;25.618;2023-01-20T08:26:26;9.18;;;4.05;;
68353;SDS011;55274;43.060;25.618;2023-01-20T08:28:54;20.50;;;4.28;;
68353;SDS011;55274;43.060;25.618;2023-01-20T08:31:21;11.10;;;3.90;;
68353;SDS011;55274;43.060;25.618;2023-01-20T08:33:52;7.22;;;2.47;;
68353;SDS011;55274;43.060;25.618;2023-01-20T08:36:21;8.90;;;2.53;;
68353;SDS011;55274;43.060;25.618;2023-01-20T08:38:55;3.72;;;2.28;;
68353;SDS011;55274;43.060;25.618;2023-01-20T08:41:23;6.05;;;2.50;;
68353;SDS011;55274;43.060;25.618;2023-01-20T08:43:54;8.45;;;2.67;;
68353;SDS011;55274;43.060;25.618;2023-01-20T08:46:21;5.88;;;2.63;;
68353;SDS011;55274;43.060;25.618;2023-01-20T08:48:48;9.02;;;3.00;;
68353;SDS011;55274;43.060;25.618;2023-01-20T08:51:19;8.75;;;3.83;;
68353;SDS011;55274;43.060;25.618;2023-01-20T08:53:46;12.55;;;4.10;;
68353;SDS011;55274;43.060;25.618;2023-01-20T08:56:13;5.65;;;3.08;;
68353;SDS011;55274;43.060;25.618;2023-01-20T08:58:39;11.30;;;6.35;;
68353;SDS011;55274;43.060;25.618;2023-01-20T09:01:13;8.15;;;4.28;;
68353;SDS011;55274;43.060;25.618;2023-01-20T09:03:43;6.95;;;3.38;;
68353;SDS011;55274;43.060;25.618;2023-01-20T09:06:09;14.93;;;4.07;;
68353;SDS011;55274;43.060;25.618;2023-01-20T09:08:35;33.95;;;5.60;;
68353;SDS011;55274;43.060;25.618;2023-01-20T09:11:20;8.70;;;2.97;;
68353;SDS011;55274;43.060;25.618;2023-01-20T09:13:48;9.27;;;2.80;;
68353;SDS011;55274;43.060;25.618;2023-01-20T09:16:14;12.23;;;2.63;;
68353;SDS011;55274;43.060;25.618;2023-01-20T09:18:41;7.80;;;2.83;;
68353;SDS011;55274;43.060;25.618;2023-01-20T09:21:08;5.50;;;2.25;;
68353;SDS011;55274;43.060;25.618;2023-01-20T09:23:35;8.23;;;2.05;;
68353;SDS011;55274;43.060;25.618;2023-01-20T09:26:03;6.57;;;2.25;;
68353;SDS011;55274;43.060;25.618;2023-01-20T09:28:30;4.72;;;2.13;;
68353;SDS011;55274;43.060;25.618;2023-01-20T09:31:03;9.27;;;2.50;;
68353;SDS011;55274;43.060;25.618;2023-01-20T09:33:34;7.97;;;1.83;;
68353;SDS011;55274;43.060;25.618;2023-01-20T09:36:03;5.43;;;1.92;;
68353;SDS011;55274;43.060;25.618;2023-01-20T09:38:30;3.85;;;1.95;;
68353;SDS011;55274;43.060;25.618;2023-01-20T09:52:32;4.90;;;2.05;;
68353;SDS011;55274;43.060;25.618;2023-01-20T10:09:20;4.88;;;2.30;;
68353;SDS011;55274;43.060;25.618;2023-01-20T10:11:48;3.97;;;1.83;;
68353;SDS011;55274;43.060;25.618;2023-01-20T10:14:21;7.97;;;2.40;;
68353;SDS011;55274;43.060;25.618;2023-01-20T10:17:05;10.40;;;2.50;;
68353;SDS011;55274;43.060;25.618;2023-01-20T10:24:58;8.15;;;1.80;;
68353;SDS011;55274;43.060;25.618;2023-01-20T10:27:51;3.33;;;2.50;;
68353;SDS011;55274;43.060;25.618;2023-01-20T10:30:24;6.63;;;3.00;;
68353;SDS011;55274;43.060;25.618;2023-01-20T10:32:57;3.42;;;1.90;;
68353;SDS011;55274;43.060;25.618;2023-01-20T10:35:51;5.68;;;3.05;;
68353;SDS011;55274;43.060;25.618;2023-01-20T10:41:11;9.30;;;3.38;;
68353;SDS011;55274;43.060;25.618;2023-01-20T10:43:57;4.60;;;2.55;;
68353;SDS011;55274;43.060;25.618;2023-01-20T10:49:21;3.17;;;1.35;;
68353;SDS011;55274;43.060;25.618;2023-01-20T10:58:00;2.88;;;1.00;;
68353;SDS011;55274;43.060;25.618;2023-01-20T11:00:46;2.75;;;0.90;;
68353;SDS011;55274;43.060;25.618;2023-01-20T11:03:15;2.63;;;0.80;;
68353;SDS011;55274;43.060;25.618;2023-01-20T11:05:46;1.00;;;0.60;;
68353;SDS011;55274;43.060;25.618;2023-01-20T11:08:17;8.90;;;0.82;;
68353;SDS011;55274;43.060;25.618;2023-01-20T11:10:48;18.10;;;1.52;;
68353;SDS011;55274;43.060;25.618;2023-01-20T11:13:18;4.50;;;0.80;;
68353;SDS011;55274;43.060;25.618;2023-01-20T11:15:48;3.30;;;0.90;;
68353;SDS011;55274;43.060;25.618;2023-01-20T11:18:22;2.42;;;0.70;;
68353;SDS011;55274;43.060;25.618;2023-01-20T11:20:52;31.73;;;3.05;;
68353;SDS011;55274;43.060;25.618;2023-01-20T11:26:04;3.08;;;1.02;;
68353;SDS011;55274;43.060;25.618;2023-01-20T11:28:50;5.80;;;1.60;;
68353;SDS011;55274;43.060;25.618;2023-01-20T11:31:17;2.95;;;0.80;;
68353;SDS011;55274;43.060;25.618;2023-01-20T11:33:54;3.17;;;1.45;;
68353;SDS011;55274;43.060;25.618;2023-01-20T11:36:22;5.50;;;1.45;;
68353;SDS011;55274;43.060;25.618;2023-01-20T11:38:50;3.55;;;1.80;;
68353;SDS011;55274;43.060;25.618;2023-01-20T11:41:21;3.03;;;0.82;;
68353;SDS011;55274;43.060;25.618;2023-01-20T11:43:58;1.45;;;0.77;;
68353;SDS011;55274;43.060;25.618;2023-01-20T11:46:29;3.85;;;0.70;;
68353;SDS011;55274;43.060;25.618;2023-01-20T11:51:50;4.50;;;1.00;;
68353;SDS011;55274;43.060;25.618;2023-01-20T11:54:19;2.45;;;0.60;;
68353;SDS011;55274;43.060;25.618;2023-01-20T11:56:52;3.72;;;0.60;;
68353;SDS011;55274;43.060;25.618;2023-01-20T12:01:55;1.55;;;0.60;;
68353;SDS011;55274;43.060;25.618;2023-01-20T12:09:59;2.42;;;0.70;;
68353;SDS011;55274;43.060;25.618;2023-01-20T12:15:15;7.60;;;2.03;;
68353;SDS011;55274;43.060;25.618;2023-01-20T12:20:26;4.10;;;1.13;;
68353;SDS011;55274;43.060;25.618;2023-01-20T12:23:22;1.65;;;0.85;;
68353;SDS011;55274;43.060;25.618;2023-01-20T12:26:00;4.97;;;1.17;;
68353;SDS011;55274;43.060;25.618;2023-01-20T12:31:04;2.70;;;0.77;;
68353;SDS011;55274;43.060;25.618;2023-01-20T12:33:40;5.20;;;1.08;;
68353;SDS011;55274;43.060;25.618;2023-01-20T12:44:26;2.53;;;1.15;;
68353;SDS011;55274;43.060;25.618;2023-01-20T12:55:23;4.45;;;0.70;;
68353;SDS011;55274;43.060;25.618;2023-01-20T12:58:06;1.58;;;0.90;;
68353;SDS011;55274;43.060;25.618;2023-01-20T13:06:48;2.90;;;0.90;;
68353;SDS011;55274;43.060;25.618;2023-01-20T13:20:27;1.83;;;0.70;;
68353;SDS011;55274;43.060;25.618;2023-01-20T13:23:03;9.52;;;1.40;;
68353;SDS011;55274;43.060;25.618;2023-01-20T13:25:29;12.18;;;1.00;;
68353;SDS011;55274;43.060;25.618;2023-01-20T13:27:56;1.08;;;0.50;;
68353;SDS011;55274;43.060;25.618;2023-01-20T13:30:39;3.80;;;0.65;;
68353;SDS011;55274;43.060;25.618;2023-01-20T13:35:49;0.77;;;0.40;;
68353;SDS011;55274;43.060;25.618;2023-01-20T13:38:19;4.13;;;0.40;;
68353;SDS011;55274;43.060;25.618;2023-01-20T13:40:49;1.10;;;0.40;;
68353;SDS011;55274;43.060;25.618;2023-01-20T13:49:24;1.77;;;0.70;;
68353;SDS011;55274;43.060;25.618;2023-01-20T13:51:42;5.88;;;0.65;;
68353;SDS011;55274;43.060;25.618;2023-01-20T13:56:52;5.20;;;0.80;;
68353;SDS011;55274;43.060;25.618;2023-01-20T13:59:48;3.90;;;0.73;;
68353;SDS011;55274;43.060;25.618;2023-01-20T14:02:18;2.85;;;0.60;;
68353;SDS011;55274;43.060;25.618;2023-01-20T14:04:45;2.80;;;0.90;;
68353;SDS011;55274;43.060;25.618;2023-01-20T14:07:24;6.28;;;1.02;;
68353;SDS011;55274;43.060;25.618;2023-01-20T14:09:59;4.82;;;0.98;;
68353;SDS011;55274;43.060;25.618;2023-01-20T14:12:25;5.93;;;0.77;;
68353;SDS011;55274;43.060;25.618;2023-01-20T14:14:53;6.13;;;0.80;;
68353;SDS011;55274;43.060;25.618;2023-01-20T14:17:21;1.63;;;0.80;;
68353;SDS011;55274;43.060;25.618;2023-01-20T14:19:49;1.67;;;0.90;;
68353;SDS011;55274;43.060;25.618;2023-01-20T14:24:49;2.55;;;0.90;;
68353;SDS011;55274;43.060;25.618;2023-01-20T14:30:14;16.02;;;1.50;;
68353;SDS011;55274;43.060;25.618;2023-01-20T14:32:48;3.00;;;0.98;;
68353;SDS011;55274;43.060;25.618;2023-01-20T14:35:16;4.75;;;0.93;;
68353;SDS011;55274;43.060;25.618;2023-01-20T14:37:49;3.30;;;0.77;;
68353;SDS011;55274;43.060;25.618;2023-01-20T14:40:23;3.65;;;0.95;;
68353;SDS011;55274;43.060;25.618;2023-01-20T14:42:59;1.67;;;0.80;;
68353;SDS011;55274;43.060;25.618;2023-01-20T14:45:27;0.98;;;0.50;;
68353;SDS011;55274;43.060;25.618;2023-01-20T14:47:56;1.45;;;0.70;;
68353;SDS011;55274;43.060;25.618;2023-01-20T14:50:24;1.70;;;0.70;;
68353;SDS011;55274;43.060;25.618;2023-01-20T14:52:50;3.53;;;0.60;;
68353;SDS011;55274;43.060;25.618;2023-01-20T14:57:56;2.33;;;1.17;;
68353;SDS011;55274;43.060;25.618;2023-01-20T15:00:23;3.60;;;0.73;;
68353;SDS011;55274;43.060;25.618;2023-01-20T15:03:03;3.92;;;1.00;;
68353;SDS011;55274;43.060;25.618;2023-01-20T15:05:36;2.33;;;1.15;;
68353;SDS011;55274;43.060;25.618;2023-01-20T15:08:23;4.35;;;0.98;;
68353;SDS011;55274;43.060;25.618;2023-01-20T15:16:25;1.55;;;0.65;;
68353;SDS011;55274;43.060;25.618;2023-01-20T15:21:41;2.78;;;0.60;;
68353;SDS011;55274;43.060;25.618;2023-01-20T15:24:21;1.45;;;0.40;;
68353;SDS011;55274;43.060;25.618;2023-01-20T15:26:52;0.30;;;0.30;;
68353;SDS011;55274;43.060;25.618;2023-01-20T15:29:29;2.55;;;0.30;;
68353;SDS011;55274;43.060;25.618;2023-01-20T15:32:00;3.92;;;0.43;;
68353;SDS011;55274;43.060;25.618;2023-01-20T15:34:30;2.25;;;0.43;;
68353;SDS011;55274;43.060;25.618;2023-01-20T15:36:56;2.92;;;0.50;;
68353;SDS011;55274;43.060;25.618;2023-01-20T15:39:23;7.32;;;0.47;;
68353;SDS011;55274;43.060;25.618;2023-01-20T15:41:53;1.55;;;0.60;;
68353;SDS011;55274;43.060;25.618;2023-01-20T15:44:19;1.85;;;1.45;;
68353;SDS011;55274;43.060;25.618;2023-01-20T15:46:45;1.85;;;0.40;;
68353;SDS011;55274;43.060;25.618;2023-01-20T15:49:11;0.30;;;0.30;;
68353;SDS011;55274;43.060;25.618;2023-01-20T15:51:38;0.50;;;0.40;;
68353;SDS011;55274;43.060;25.618;2023-01-20T15:54:05;1.75;;;0.52;;
68353;SDS011;55274;43.060;25.618;2023-01-20T15:56:31;0.75;;;0.40;;
68353;SDS011;55274;43.060;25.618;2023-01-20T15:58:59;1.83;;;0.55;;
68353;SDS011;55274;43.060;25.618;2023-01-20T16:01:25;1.98;;;0.40;;
68353;SDS011;55274;43.060;25.618;2023-01-20T16:03:53;0.90;;;0.60;;
68353;SDS011;55274;43.060;25.618;2023-01-20T16:06:30;0.57;;;0.50;;
68353;SDS011;55274;43.060;25.618;2023-01-20T16:08:57;0.95;;;0.60;;
68353;SDS011;55274;43.060;25.618;2023-01-20T16:11:25;2.47;;;0.68;;
68353;SDS011;55274;43.060;25.618;2023-01-20T16:13:51;5.55;;;1.10;;
68353;SDS011;55274;43.060;25.618;2023-01-20T16:16:18;3.42;;;1.00;;
68353;SDS011;55274;43.060;25.618;2023-01-20T16:18:45;4.70;;;1.33;;
68353;SDS011;55274;43.060;25.618;2023-01-20T16:21:12;2.85;;;0.90;;
68353;SDS011;55274;43.060;25.618;2023-01-20T16:23:40;2.97;;;1.33;;
68353;SDS011;55274;43.060;25.618;2023-01-20T16:26:15;3.70;;;0.98;;
68353;SDS011;55274;43.060;25.618;2023-01-20T16:28:56;1.33;;;0.88;;
68353;SDS011;55274;43.060;25.618;2023-01-20T16:31:22;13.25;;;2.10;;
68353;SDS011;55274;43.060;25.618;2023-01-20T16:33:50;6.30;;;2.58;;
68353;SDS011;55274;43.060;25.618;2023-01-20T16:36:17;36.45;;;3.28;;
68353;SDS011;55274;43.060;25.618;2023-01-20T16:38:45;7.47;;;1.30;;
68353;SDS011;55274;43.060;25.618;2023-01-20T16:43:49;3.55;;;1.65;;
68353;SDS011;55274;43.060;25.618;2023-01-20T16:46:19;2.95;;;1.65;;
68353;SDS011;55274;43.060;25.618;2023-01-20T16:48:50;71.75;;;7.95;;
68353;SDS011;55274;43.060;25.618;2023-01-20T16:51:21;5.65;;;2.30;;
68353;SDS011;55274;43.060;25.618;2023-01-20T16:53:49;8.32;;;2.38;;
68353;SDS011;55274;43.060;25.618;2023-01-20T16:56:16;8.20;;;3.80;;
68353;SDS011;55274;43.060;25.618;2023-01-20T16:58:47;18.13;;;7.18;;
68353;SDS011;55274;43.060;25.618;2023-01-20T17:01:15;5.18;;;3.20;;
68353;SDS011;55274;43.060;25.618;2023-01-20T17:03:47;5.40;;;2.42;;
68353;SDS011;55274;43.060;25.618;2023-01-20T17:06:15;9.25;;;5.03;;
68353;SDS011;55274;43.060;25.618;2023-01-20T17:08:43;2.70;;;1.10;;
68353;SDS011;55274;43.060;25.618;2023-01-20T17:11:15;9.32;;;2.42;;
68353;SDS011;55274;43.060;25.618;2023-01-20T17:13:48;19.15;;;7.28;;
68353;SDS011;55274;43.060;25.618;2023-01-20T17:16:14;14.93;;;3.90;;
68353;SDS011;55274;43.060;25.618;2023-01-20T17:18:40;6.35;;;2.50;;